createdAt,value
2018-11-02T00:01:20.040Z,76.40
2018-11-02T00:03:47.641Z,76.50
2018-11-02T00:06:15.386Z,76.80
2018-11-02T00:08:43.030Z,76.40
2018-11-02T00:11:10.610Z,76.80
2018-11-02T00:13:38.244Z,77.40
2018-11-02T00:16:06.407Z,77.10
2018-11-02T00:18:34.076Z,75.40
2018-11-02T00:21:01.732Z,74.90
2018-11-02T00:23:29.388Z,74.40
2018-11-02T00:25:57.036Z,74.40
2018-11-02T00:28:24.685Z,73.90
2018-11-02T00:30:52.557Z,74.70
2018-11-02T00:33:20.236Z,74.50
2018-11-02T00:35:47.830Z,73.80
2018-11-02T00:38:15.468Z,74.30
2018-11-02T00:40:43.176Z,73.60
2018-11-02T00:43:10.808Z,74.70
2018-11-02T00:45:38.463Z,74.70
2018-11-02T00:48:06.224Z,75.60
2018-11-02T00:53:07.112Z,74.20
2018-11-02T00:55:34.803Z,73.80
2018-11-02T00:58:02.447Z,74.20
2018-11-02T01:00:30.086Z,74.90
2018-11-02T01:02:57.906Z,74.70
2018-11-02T01:05:25.517Z,74.80
2018-11-02T01:07:53.181Z,74.00
2018-11-02T01:10:20.772Z,74.00
2018-11-02T01:12:48.393Z,74.40
2018-11-02T01:15:16.009Z,73.80
2018-11-02T01:17:43.646Z,73.20
2018-11-02T01:20:11.669Z,72.80
2018-11-02T01:22:39.468Z,72.40
2018-11-02T01:25:07.691Z,72.60
2018-11-02T01:27:35.353Z,73.00
2018-11-02T01:30:03.408Z,74.10
2018-11-02T01:32:31.108Z,74.60
2018-11-02T01:34:58.861Z,74.20
2018-11-02T01:37:26.516Z,73.60
2018-11-02T01:39:54.205Z,73.10
2018-11-02T01:42:22.009Z,72.70
2018-11-02T01:44:49.634Z,72.50
2018-11-02T01:47:17.323Z,73.10
2018-11-02T01:49:44.949Z,73.30
2018-11-02T01:52:12.552Z,73.70
2018-11-02T01:54:40.167Z,74.80
2018-11-02T01:57:07.818Z,73.60
2018-11-02T01:59:35.479Z,72.80
2018-11-02T02:02:03.505Z,72.30
2018-11-02T02:04:31.150Z,71.90
2018-11-02T02:06:58.797Z,71.60
2018-11-02T02:09:26.573Z,71.40
2018-11-02T02:11:54.251Z,71.30
2018-11-02T02:14:21.978Z,71.50
2018-11-02T02:16:49.731Z,71.70
2018-11-02T02:19:17.434Z,72.00
2018-11-02T02:21:45.063Z,71.70
2018-11-02T02:24:12.703Z,71.20
2018-11-02T02:26:40.377Z,71.20
2018-11-02T02:29:08.050Z,71.80
2018-11-02T02:31:35.664Z,72.30
2018-11-02T02:34:03.393Z,72.30
2018-11-02T02:36:31.268Z,71.90
2018-11-02T02:38:58.944Z,71.60
2018-11-02T02:41:26.608Z,71.20
2018-11-02T02:43:54.242Z,71.30
2018-11-02T02:46:22.127Z,71.90
2018-11-02T02:48:49.752Z,72.40
2018-11-02T02:51:17.343Z,72.20
2018-11-02T02:53:44.956Z,71.80
2018-11-02T02:56:12.614Z,71.20
2018-11-02T02:58:40.232Z,71.10
2018-11-02T03:01:07.876Z,70.60
2018-11-02T03:03:35.557Z,70.60
2018-11-02T03:06:03.259Z,71.00
2018-11-02T03:08:30.947Z,71.50
2018-11-02T03:10:58.743Z,71.90
2018-11-02T03:13:26.504Z,72.20
2018-11-02T03:15:54.433Z,72.00
2018-11-02T03:18:22.269Z,71.60
2018-11-02T03:20:49.818Z,71.30
2018-11-02T03:23:17.405Z,70.70
2018-11-02T03:25:45.004Z,70.20
2018-11-02T03:28:12.635Z,70.20
2018-11-02T03:30:40.332Z,70.30
2018-11-02T03:33:07.914Z,70.40
2018-11-02T03:35:35.587Z,70.60
2018-11-02T03:38:03.201Z,70.70
2018-11-02T03:40:31.023Z,71.30
2018-11-02T03:42:58.704Z,72.30
2018-11-02T03:45:26.339Z,72.60
2018-11-02T03:47:53.938Z,71.80
2018-11-02T03:50:21.881Z,71.80
2018-11-02T03:52:49.557Z,72.20
2018-11-02T03:55:17.189Z,72.70
2018-11-02T03:57:44.812Z,73.90
2018-11-02T04:00:12.591Z,73.60
2018-11-02T04:02:40.294Z,73.30
2018-11-02T04:05:08.820Z,73.10
2018-11-02T04:07:36.519Z,73.50
2018-11-02T04:10:04.305Z,73.80
2018-11-02T04:12:31.919Z,73.10
2018-11-02T04:14:59.765Z,74.00
2018-11-02T04:17:27.408Z,74.90
2018-11-02T04:19:55.093Z,74.40
2018-11-02T04:22:22.724Z,73.70
2018-11-02T04:24:50.356Z,73.30
2018-11-02T04:27:17.985Z,73.10
2018-11-02T04:29:45.598Z,73.40
2018-11-02T04:32:13.220Z,73.60
2018-11-02T04:34:40.795Z,74.00
2018-11-02T04:37:09.503Z,74.90
2018-11-02T04:39:37.125Z,76.10
2018-11-02T04:42:05.125Z,76.50
2018-11-02T04:44:32.740Z,76.50
2018-11-02T04:47:00.425Z,75.60
2018-11-02T04:49:28.011Z,75.00
2018-11-02T04:51:55.648Z,75.20
2018-11-02T04:54:23.232Z,76.80
2018-11-02T04:56:50.829Z,77.40
2018-11-02T04:59:29.577Z,76.10
2018-11-02T05:02:07.793Z,75.50
2018-11-02T05:04:35.432Z,75.90
2018-11-02T05:07:03.166Z,76.70
2018-11-02T05:09:30.770Z,76.90
2018-11-02T05:11:58.429Z,76.10
2018-11-02T05:14:26.100Z,75.50
2018-11-02T05:16:53.744Z,76.40
2018-11-02T05:19:21.358Z,78.00
2018-11-02T05:21:48.968Z,78.90
2018-11-02T05:24:16.579Z,78.80
2018-11-02T05:26:44.205Z,77.90
2018-11-02T05:29:11.909Z,77.40
2018-11-02T05:31:39.588Z,78.40
2018-11-02T05:34:07.402Z,79.30
2018-11-02T05:36:35.235Z,79.00
2018-11-02T05:39:03.870Z,77.90
2018-11-02T05:41:31.486Z,77.80
2018-11-02T05:43:59.134Z,79.00
2018-11-02T05:46:26.737Z,79.60
2018-11-02T05:48:54.343Z,79.80
2018-11-02T05:51:21.956Z,79.60
2018-11-02T05:53:49.616Z,79.40
2018-11-02T05:56:17.216Z,79.20
2018-11-02T05:58:44.830Z,80.40
2018-11-02T06:01:12.406Z,80.80
2018-11-02T06:03:40.052Z,80.20
2018-11-02T06:06:07.728Z,80.00
2018-11-02T06:08:35.360Z,79.80
2018-11-02T06:11:02.953Z,80.20
2018-11-02T06:13:30.748Z,81.00
2018-11-02T06:15:58.336Z,81.60
2018-11-02T06:18:25.949Z,83.70
2018-11-02T06:20:53.527Z,84.80
2018-11-02T06:23:21.167Z,85.40
2018-11-02T06:25:48.768Z,85.80
2018-11-02T06:28:16.347Z,85.60
2018-11-02T06:30:43.988Z,85.40
2018-11-02T06:33:11.553Z,84.80
2018-11-02T06:35:39.259Z,84.80
2018-11-02T06:38:06.917Z,84.80
2018-11-02T06:40:35.900Z,84.70
2018-11-02T06:43:03.543Z,84.70
2018-11-02T06:45:31.160Z,84.90
2018-11-02T06:47:58.876Z,84.80
2018-11-02T06:50:26.487Z,85.00
2018-11-02T06:52:54.104Z,85.10
2018-11-02T06:55:21.708Z,85.20
2018-11-02T06:57:49.301Z,85.50
2018-11-02T07:00:16.949Z,85.70
2018-11-02T07:02:44.520Z,85.90
2018-11-02T07:05:12.161Z,86.10
2018-11-02T07:07:40.050Z,86.00
2018-11-02T07:10:08.869Z,86.10
2018-11-02T07:12:36.512Z,86.00
2018-11-02T07:15:05.040Z,85.80
2018-11-02T07:17:32.651Z,85.80
2018-11-02T07:20:00.280Z,85.90
2018-11-02T07:22:27.900Z,86.30
2018-11-02T07:24:55.854Z,86.90
2018-11-02T07:27:23.486Z,87.60
2018-11-02T07:29:51.104Z,88.00
2018-11-02T07:32:18.835Z,88.30
2018-11-02T07:34:46.505Z,88.20
2018-11-02T07:37:14.114Z,88.20
2018-11-02T07:39:41.786Z,88.20
2018-11-02T07:42:09.485Z,88.60
2018-11-02T07:44:37.112Z,88.80
2018-11-02T07:47:05.223Z,89.00
2018-11-02T07:49:32.970Z,89.30
2018-11-02T07:52:00.532Z,89.60
2018-11-02T07:54:28.187Z,89.90
2018-11-02T07:56:55.823Z,90.00
2018-11-02T07:59:23.483Z,90.00
2018-11-02T08:01:51.180Z,90.20
2018-11-02T08:04:19.216Z,90.30
2018-11-02T08:06:46.869Z,90.40
2018-11-02T08:09:15.191Z,90.40
2018-11-02T08:11:43.435Z,90.40
2018-11-02T08:14:11.064Z,90.40
2018-11-02T08:16:38.696Z,90.50
2018-11-02T08:19:06.394Z,90.60
2018-11-02T08:21:33.916Z,90.80
2018-11-02T08:24:01.877Z,91.00
2018-11-02T08:26:29.445Z,91.20
2018-11-02T08:28:57.044Z,91.30
2018-11-02T08:31:24.660Z,91.40
2018-11-02T08:33:52.279Z,91.30
2018-11-02T08:36:19.913Z,91.10
2018-11-02T08:38:47.542Z,91.00
2018-11-02T08:41:15.162Z,90.90
2018-11-02T08:43:42.748Z,90.90
2018-11-02T08:46:10.871Z,91.00
2018-11-02T08:48:38.493Z,91.10
2018-11-02T08:51:06.538Z,91.00
2018-11-02T08:53:34.173Z,91.10
2018-11-02T08:56:01.837Z,91.20
2018-11-02T08:58:29.598Z,91.20
2018-11-02T09:00:57.165Z,91.40
2018-11-02T09:03:24.796Z,91.50
2018-11-02T09:05:52.476Z,91.50
2018-11-02T09:08:20.311Z,91.50
2018-11-02T09:10:47.908Z,91.50
2018-11-02T09:13:16.429Z,91.40
2018-11-02T09:15:44.020Z,91.20
2018-11-02T09:18:11.664Z,91.10
2018-11-02T09:20:39.295Z,91.10
2018-11-02T09:23:06.872Z,90.90
2018-11-02T09:25:34.489Z,90.80
2018-11-02T09:28:02.211Z,90.50
2018-11-02T09:30:29.833Z,90.20
2018-11-02T09:32:57.553Z,90.20
2018-11-02T09:35:25.165Z,90.00
2018-11-02T09:37:53.641Z,89.00
2018-11-02T09:40:21.427Z,88.20
2018-11-02T09:42:49.088Z,87.50
2018-11-02T09:45:16.742Z,87.60
2018-11-02T09:47:44.440Z,87.20
2018-11-02T09:50:12.604Z,86.60
2018-11-02T09:52:40.361Z,86.10
2018-11-02T09:55:10.529Z,88.40
2018-11-02T09:57:38.259Z,90.10
2018-11-02T10:00:07.661Z,90.20
2018-11-02T10:02:35.397Z,90.70
2018-11-02T10:05:03.113Z,90.60
2018-11-02T10:07:30.776Z,90.60
2018-11-02T10:09:58.504Z,90.80
2018-11-02T10:12:26.217Z,90.60
2018-11-02T10:14:53.927Z,90.30
2018-11-02T10:17:21.626Z,90.20
2018-11-02T10:19:49.331Z,90.20
2018-11-02T10:22:17.022Z,89.70
2018-11-02T10:24:44.709Z,89.50
2018-11-02T10:27:12.457Z,88.40
2018-11-02T10:29:41.245Z,88.40
2018-11-02T10:32:09.036Z,87.50
2018-11-02T10:34:36.821Z,86.90
2018-11-02T10:37:05.142Z,86.80
2018-11-02T10:39:32.813Z,86.80
2018-11-02T10:42:01.482Z,85.20
2018-11-02T10:44:32.230Z,84.50
2018-11-02T10:47:00.058Z,85.30
2018-11-02T10:49:27.783Z,84.00
2018-11-02T10:51:55.528Z,82.00
2018-11-02T10:54:23.320Z,80.30
2018-11-02T10:56:51.089Z,79.70
2018-11-02T10:59:18.825Z,76.90
2018-11-02T11:01:55.060Z,75.50
2018-11-02T11:04:22.760Z,74.70
2018-11-02T11:06:50.637Z,75.90
2018-11-02T11:09:18.329Z,76.30
2018-11-02T11:11:46.114Z,75.20
2018-11-02T11:14:13.669Z,74.70
2018-11-02T11:16:41.609Z,74.50
2018-11-02T11:19:09.873Z,71.10
2018-11-02T11:21:38.470Z,67.50
2018-11-02T11:24:06.162Z,68.80
2018-11-02T11:26:33.897Z,70.10
2018-11-02T11:29:01.619Z,70.90
2018-11-02T11:31:29.349Z,70.30
2018-11-02T11:33:57.318Z,70.50
2018-11-02T11:36:25.707Z,71.00
2018-11-02T11:39:00.172Z,70.10
2018-11-02T11:41:27.852Z,68.60
2018-11-02T11:43:55.533Z,68.80
2018-11-02T11:46:23.179Z,68.10
2018-11-02T11:48:51.002Z,67.10
2018-11-02T11:51:18.513Z,66.70
2018-11-02T11:53:46.185Z,66.10
2018-11-02T11:56:13.842Z,66.20
2018-11-02T11:58:41.521Z,65.40
2018-11-02T12:01:09.159Z,66.10
2018-11-02T12:03:36.838Z,64.70
2018-11-02T12:06:04.593Z,65.10
2018-11-02T12:08:32.689Z,64.20
2018-11-02T12:11:00.325Z,65.00
2018-11-02T12:13:28.026Z,66.50
2018-11-02T12:15:55.753Z,66.90
2018-11-02T12:18:23.427Z,66.80
2018-11-02T12:20:51.116Z,66.50
2018-11-02T12:23:18.855Z,65.80
2018-11-02T12:25:46.778Z,65.60
2018-11-02T12:28:14.539Z,66.50
2018-11-02T12:30:42.281Z,66.40
2018-11-02T12:33:10.080Z,66.40
2018-11-02T12:35:37.774Z,65.40
2018-11-02T12:38:05.505Z,66.30
2018-11-02T12:40:33.171Z,66.40
2018-11-02T12:43:00.868Z,66.30
2018-11-02T12:45:28.540Z,66.50
2018-11-02T12:47:56.319Z,65.60
2018-11-02T12:50:26.056Z,65.50
2018-11-02T12:52:54.901Z,65.60
2018-11-02T12:55:22.794Z,65.10
2018-11-02T12:57:50.548Z,65.20
2018-11-02T13:00:19.539Z,64.90
2018-11-02T13:02:47.708Z,65.60
2018-11-02T13:05:15.432Z,64.50
2018-11-02T13:07:43.210Z,63.70
2018-11-02T13:10:12.251Z,64.10
2018-11-02T13:12:39.988Z,65.30
2018-11-02T13:15:09.541Z,64.60
2018-11-02T13:17:37.456Z,64.70
2018-11-02T13:20:05.783Z,64.40
2018-11-02T13:22:33.409Z,64.60
2018-11-02T13:25:01.053Z,65.10
2018-11-02T13:27:28.687Z,65.00
2018-11-02T13:29:56.497Z,65.10
2018-11-02T13:32:24.409Z,64.90
2018-11-02T13:34:52.365Z,65.00
2018-11-02T13:37:20.461Z,64.90
2018-11-02T13:39:48.181Z,64.30
2018-11-02T13:42:15.841Z,64.30
2018-11-02T13:44:43.764Z,64.40
2018-11-02T13:47:11.424Z,64.80
2018-11-02T13:49:39.276Z,65.10
2018-11-02T13:52:08.226Z,65.50
2018-11-02T13:54:35.894Z,65.30
2018-11-02T13:57:03.617Z,65.00
2018-11-02T13:59:31.358Z,65.10
2018-11-02T14:01:59.157Z,64.80
2018-11-02T14:04:26.812Z,64.30
2018-11-02T14:06:54.513Z,64.10
2018-11-02T14:09:22.197Z,64.10
2018-11-02T14:11:49.884Z,63.60
2018-11-02T14:14:18.256Z,64.20
2018-11-02T14:16:45.908Z,64.50
2018-11-02T14:19:13.548Z,64.40
2018-11-02T14:21:41.220Z,64.20
2018-11-02T14:24:08.900Z,64.20
2018-11-02T14:26:36.541Z,64.10
2018-11-02T14:29:04.347Z,64.70
2018-11-02T14:31:32.010Z,64.50
2018-11-02T14:33:59.652Z,64.60
2018-11-02T14:36:27.383Z,64.10
2018-11-02T14:38:55.282Z,63.90
2018-11-02T14:41:23.181Z,64.20
2018-11-02T14:43:50.772Z,64.10
2018-11-02T14:46:18.433Z,64.30
2018-11-02T14:48:46.312Z,64.60
2018-11-02T14:51:13.968Z,64.60
2018-11-02T14:53:41.691Z,64.60
2018-11-02T14:56:09.732Z,64.30
2018-11-02T14:58:37.445Z,64.60
2018-11-02T15:01:05.173Z,64.30
2018-11-02T15:03:32.793Z,64.60
2018-11-02T15:06:00.809Z,64.70
2018-11-02T15:08:28.453Z,65.00
2018-11-02T15:10:56.203Z,64.90
2018-11-02T15:13:23.929Z,64.90
2018-11-02T15:15:51.608Z,65.10
2018-11-02T15:18:19.195Z,65.10
2018-11-02T15:20:47.987Z,65.20
2018-11-02T15:23:15.585Z,65.20
2018-11-02T15:25:43.372Z,65.40
2018-11-02T15:28:11.054Z,65.50
2018-11-02T15:30:38.857Z,65.50
2018-11-02T15:33:06.541Z,65.60
2018-11-02T15:35:34.233Z,65.80
2018-11-02T15:38:01.807Z,65.70
2018-11-02T15:40:29.609Z,66.60
2018-11-02T15:42:57.278Z,66.60
2018-11-02T15:45:25.040Z,66.80
2018-11-02T15:47:52.667Z,66.90
2018-11-02T15:50:20.592Z,66.70
2018-11-02T15:52:48.196Z,67.00
2018-11-02T15:55:15.881Z,67.20
2018-11-02T15:57:43.544Z,67.30
2018-11-02T16:00:19.368Z,67.30
2018-11-02T16:02:48.570Z,67.40
2018-11-02T16:05:16.290Z,67.30
2018-11-02T16:07:44.352Z,68.10
2018-11-02T16:10:12.352Z,68.00
2018-11-02T16:12:40.687Z,68.00
2018-11-02T16:15:09.092Z,68.00
2018-11-02T16:17:37.936Z,67.90
2018-11-02T16:20:07.379Z,68.10
2018-11-02T16:22:34.952Z,68.20
2018-11-02T16:25:02.684Z,68.30
2018-11-02T16:27:30.351Z,68.50
2018-11-02T16:29:58.186Z,68.90
2018-11-02T16:32:26.260Z,69.00
2018-11-02T16:34:53.908Z,69.00
2018-11-02T16:37:21.552Z,68.80
2018-11-02T16:39:50.698Z,69.00
2018-11-02T16:42:18.396Z,69.20
2018-11-02T16:44:46.783Z,69.80
2018-11-02T16:47:14.480Z,70.70
2018-11-02T16:49:42.108Z,70.80
2018-11-02T16:52:10.005Z,70.60
2018-11-02T16:54:37.890Z,70.70
2018-11-02T16:57:05.548Z,70.80
2018-11-02T16:59:33.133Z,70.80
2018-11-02T17:02:00.895Z,71.00
2018-11-02T17:04:28.523Z,71.30
2018-11-02T17:06:56.251Z,71.30
2018-11-02T17:09:23.849Z,71.90
2018-11-02T17:11:51.516Z,71.70
2018-11-02T17:14:19.150Z,72.10
2018-11-02T17:16:46.852Z,72.50
2018-11-02T17:19:14.500Z,72.70
2018-11-02T17:21:42.202Z,72.70
2018-11-02T17:24:09.912Z,72.30
2018-11-02T17:26:37.575Z,72.50
2018-11-02T17:29:05.520Z,72.80
2018-11-02T17:31:33.173Z,73.40
2018-11-02T17:34:00.841Z,74.00
2018-11-02T17:36:28.529Z,74.40
2018-11-02T17:38:56.156Z,74.60
2018-11-02T17:41:23.773Z,74.50
2018-11-02T17:43:51.508Z,74.10
2018-11-02T17:46:19.299Z,74.00
2018-11-02T17:48:47.068Z,74.00
2018-11-02T17:51:14.690Z,73.80
2018-11-02T17:53:42.344Z,73.70
2018-11-02T17:56:10.055Z,73.70
2018-11-02T17:58:37.814Z,73.40
2018-11-02T18:01:05.490Z,73.50
2018-11-02T18:03:33.182Z,74.70
2018-11-02T18:06:00.801Z,75.30
2018-11-02T18:08:28.579Z,75.80
2018-11-02T18:10:56.165Z,76.20
2018-11-02T18:13:23.833Z,76.40
2018-11-02T18:15:51.503Z,76.70
2018-11-02T18:18:19.335Z,76.90
2018-11-02T18:20:47.850Z,77.20
2018-11-02T18:23:15.491Z,77.70
2018-11-02T18:25:43.089Z,77.70
2018-11-02T18:28:10.714Z,77.70
2018-11-02T18:30:38.326Z,77.80
2018-11-02T18:33:05.972Z,77.20
2018-11-02T18:35:33.710Z,77.10
2018-11-02T18:38:01.252Z,77.20
2018-11-02T18:40:28.924Z,77.30
2018-11-02T18:42:57.622Z,77.60
2018-11-02T18:45:25.330Z,77.70
2018-11-02T18:47:53.065Z,77.90
2018-11-02T18:50:21.653Z,78.10
2018-11-02T18:52:49.857Z,78.00
2018-11-02T18:55:18.222Z,77.70
2018-11-02T18:57:45.801Z,78.00
2018-11-02T19:00:13.778Z,77.40
2018-11-02T19:02:41.561Z,77.30
2018-11-02T19:05:11.808Z,77.00
2018-11-02T19:07:39.631Z,77.10
2018-11-02T19:10:08.745Z,77.60
2018-11-02T19:12:36.877Z,77.30
2018-11-02T19:15:06.407Z,77.00
2018-11-02T19:17:34.051Z,77.40
2018-11-02T19:20:01.783Z,78.10
2018-11-02T19:22:29.248Z,78.40
2018-11-02T19:24:56.891Z,78.40
2018-11-02T19:27:24.537Z,78.20
2018-11-02T19:29:52.262Z,77.60
2018-11-02T19:32:19.884Z,77.80
2018-11-02T19:34:47.618Z,78.00
2018-11-02T19:37:15.118Z,78.80
2018-11-02T19:39:42.735Z,77.40
2018-11-02T19:42:10.366Z,76.90
2018-11-02T19:44:38.131Z,76.80
2018-11-02T19:47:05.801Z,76.80
2018-11-02T19:49:33.439Z,76.40
2018-11-02T19:52:01.074Z,76.10
2018-11-02T19:54:28.700Z,76.20
2018-11-02T19:56:56.361Z,76.30
2018-11-02T19:59:24.025Z,76.30
2018-11-02T20:01:52.749Z,76.50
2018-11-02T20:04:20.367Z,76.60
2018-11-02T20:06:47.976Z,76.80
2018-11-02T20:09:15.629Z,77.10
2018-11-02T20:11:43.353Z,77.10
2018-11-02T20:14:10.991Z,76.70
2018-11-02T20:16:38.644Z,76.90
2018-11-02T20:19:06.369Z,76.80
2018-11-02T20:21:33.987Z,77.50
2018-11-02T20:24:01.678Z,76.90
2018-11-02T20:26:29.328Z,76.80
2018-11-02T20:28:56.949Z,77.20
2018-11-02T20:31:24.584Z,77.40
2018-11-02T20:33:52.214Z,76.90
2018-11-02T20:36:19.866Z,76.90
2018-11-02T20:38:47.490Z,77.60
2018-11-02T20:41:15.143Z,76.60
2018-11-02T20:43:42.777Z,76.60
2018-11-02T20:46:10.431Z,77.00
2018-11-02T20:48:38.124Z,77.20
2018-11-02T20:51:05.860Z,77.10
2018-11-02T20:53:33.448Z,77.10
2018-11-02T20:56:01.109Z,76.90
2018-11-02T20:58:28.803Z,77.30
2018-11-02T21:00:56.431Z,76.80
2018-11-02T21:03:24.041Z,76.90
2018-11-02T21:05:51.671Z,78.20
2018-11-02T21:08:19.961Z,78.80
2018-11-02T21:10:48.265Z,79.30
2018-11-02T21:13:15.928Z,78.70
2018-11-02T21:15:43.677Z,78.10
2018-11-02T21:18:11.263Z,78.10
2018-11-02T21:20:38.890Z,78.30
2018-11-02T21:23:06.594Z,78.60
2018-11-02T21:25:34.208Z,78.50
2018-11-02T21:28:01.882Z,78.90
2018-11-02T21:30:29.489Z,79.80
2018-11-02T21:32:57.050Z,80.10
2018-11-02T21:35:24.761Z,80.00
2018-11-02T21:37:52.530Z,79.90
2018-11-02T21:40:21.428Z,80.00
2018-11-02T21:42:49.065Z,80.00
2018-11-02T21:45:18.088Z,80.20
2018-11-02T21:47:45.932Z,80.50
2018-11-02T21:50:13.961Z,80.10
2018-11-02T21:52:41.645Z,79.80
2018-11-02T21:55:09.364Z,79.50
2018-11-02T21:57:36.960Z,79.40
2018-11-02T22:00:06.516Z,79.20
2018-11-02T22:02:34.205Z,79.20
2018-11-02T22:05:01.807Z,79.30
2018-11-02T22:07:29.513Z,79.70
2018-11-02T22:09:57.177Z,80.30
2018-11-02T22:12:24.775Z,79.80
2018-11-02T22:14:52.376Z,79.30
2018-11-02T22:17:20.145Z,79.30
2018-11-02T22:19:47.759Z,79.50
2018-11-02T22:22:15.370Z,79.50
2018-11-02T22:24:42.981Z,79.40
2018-11-02T22:27:10.662Z,79.40
2018-11-02T22:29:38.227Z,80.00
2018-11-02T22:32:05.868Z,80.50
2018-11-02T22:34:33.472Z,79.90
2018-11-02T22:37:01.084Z,79.60
2018-11-02T22:39:28.636Z,79.50
2018-11-02T22:41:56.217Z,80.00
2018-11-02T22:44:23.885Z,79.70
2018-11-02T22:46:51.498Z,80.00
2018-11-02T22:49:19.119Z,79.80
2018-11-02T22:51:46.972Z,80.30
2018-11-02T22:54:14.623Z,80.30
2018-11-02T22:56:42.149Z,80.70
2018-11-02T22:59:10.020Z,80.70
2018-11-02T23:01:49.783Z,81.10
2018-11-02T23:04:17.388Z,81.20
2018-11-02T23:06:45.017Z,81.20
2018-11-02T23:09:12.619Z,81.00
2018-11-02T23:11:40.300Z,81.10
2018-11-02T23:14:08.090Z,80.80
2018-11-02T23:16:36.372Z,81.40
2018-11-02T23:19:04.235Z,81.20
2018-11-02T23:21:31.796Z,81.50
2018-11-02T23:23:59.383Z,81.20
2018-11-02T23:26:28.002Z,81.70
2018-11-02T23:28:55.720Z,81.70
2018-11-02T23:31:23.265Z,81.90
2018-11-02T23:33:50.922Z,82.20
2018-11-02T23:36:18.517Z,82.30
2018-11-02T23:38:46.332Z,82.40
2018-11-02T23:44:17.696Z,82.00
2018-11-02T23:46:45.334Z,81.80
2018-11-02T23:49:13.128Z,82.10
2018-11-02T23:51:40.728Z,82.40
2018-11-02T23:54:10.386Z,82.60
2018-11-02T23:56:38.024Z,82.70
2018-11-02T23:59:05.830Z,82.50
